Time;durP1;ratioP1;P1;durP2;ratioP2;P2;SDS_P1;SDS_P2;PMS_P1;PMS_P2;Temp;Humidity;BMP_temperature;BMP_pressure;BME280_temperature;BME280_humidity;BME280_pressure;Samples;Min_cycle;Max_cycle;Signal;HPM_P1;HPM_P2
2021/07/27 00:01:38;;;;;;;6.38;0.90;;;;;;;;;;5006725;28;20124;-57
2021/07/27 00:04:04;;;;;;;2.28;1.10;;;;;;;;;;4995149;28;20108;-57
2021/07/27 00:06:31;;;;;;;4.30;1.40;;;;;;;;;;5011305;28;20045;-57
2021/07/27 00:08:58;;;;;;;3.88;0.90;;;;;;;;;;5010938;28;20478;-57
2021/07/27 00:11:25;;;;;;;1.80;1.08;;;;;;;;;;5009526;28;20454;-57
2021/07/27 00:13:51;;;;;;;1.33;0.80;;;;;;;;;;5010874;28;20042;-57
2021/07/27 00:16:18;;;;;;;6.45;1.25;;;;;;;;;;4994651;28;20430;-57
2021/07/27 00:18:45;;;;;;;4.53;1.25;;;;;;;;;;5011554;28;20057;-57
2021/07/27 00:21:11;;;;;;;2.58;1.00;;;;;;;;;;5011434;28;20034;-57
2021/07/27 00:23:39;;;;;;;1.60;0.90;;;;;;;;;;5002852;28;20045;-57
2021/07/27 00:26:13;;;;;;;1.80;1.30;;;;;;;;;;5010105;28;20034;-57
2021/07/27 00:28:41;;;;;;;3.50;1.20;;;;;;;;;;4996265;28;20058;-57
2021/07/27 00:31:17;;;;;;;2.45;0.98;;;;;;;;;;5012227;28;20070;-57
2021/07/27 00:33:44;;;;;;;1.75;0.90;;;;;;;;;;5009373;28;20046;-58
2021/07/27 00:36:11;;;;;;;2.25;0.90;;;;;;;;;;5010071;28;20046;-57
2021/07/27 00:38:38;;;;;;;2.47;1.13;;;;;;;;;;5009715;28;20128;-57
2021/07/27 00:41:05;;;;;;;5.75;1.27;;;;;;;;;;5004869;28;20046;-57
2021/07/27 00:43:32;;;;;;;5.05;0.93;;;;;;;;;;5001874;28;20129;-57
2021/07/27 00:45:58;;;;;;;2.60;1.00;;;;;;;;;;5004393;28;20119;-57
2021/07/27 00:48:25;;;;;;;3.35;1.75;;;;;;;;;;5011235;28;20042;-57
2021/07/27 00:50:52;;;;;;;3.20;0.98;;;;;;;;;;5011733;28;20506;-56
2021/07/27 00:53:19;;;;;;;2.90;1.15;;;;;;;;;;5010583;28;20121;-57
2021/07/27 00:55:45;;;;;;;4.25;1.42;;;;;;;;;;5011295;28;20030;-55
2021/07/27 00:58:12;;;;;;;1.10;1.00;;;;;;;;;;5009719;28;20064;-57
2021/07/27 01:00:39;;;;;;;2.75;0.85;;;;;;;;;;4993775;28;20522;-57
2021/07/27 01:03:06;;;;;;;3.38;0.93;;;;;;;;;;5012420;28;20045;-57
2021/07/27 01:05:33;;;;;;;5.10;1.30;;;;;;;;;;5009956;28;20383;-57
2021/07/27 01:07:59;;;;;;;5.68;1.42;;;;;;;;;;5012045;28;20046;-57
2021/07/27 01:10:26;;;;;;;2.85;1.27;;;;;;;;;;5010549;28;20100;-57
2021/07/27 01:12:53;;;;;;;1.95;0.90;;;;;;;;;;4997605;28;20505;-57
2021/07/27 01:15:19;;;;;;;3.33;1.38;;;;;;;;;;5012129;28;20074;-56
2021/07/27 01:17:46;;;;;;;2.75;1.20;;;;;;;;;;5008761;28;20041;-57
2021/07/27 01:44:30;;;;;;;3.75;1.10;;;;;;;;;;5010805;28;20041;-56
2021/07/27 01:46:57;;;;;;;4.15;1.30;;;;;;;;;;5008870;28;20104;-57
2021/07/27 01:49:24;;;;;;;5.45;1.35;;;;;;;;;;5009534;28;20121;-56
2021/07/27 01:51:53;;;;;;;4.40;1.30;;;;;;;;;;5011608;28;20045;-56
2021/07/27 01:54:28;;;;;;;2.20;1.25;;;;;;;;;;5007165;28;20030;-57
2021/07/27 01:56:56;;;;;;;2.65;1.00;;;;;;;;;;5010138;28;20482;-57
2021/07/27 01:59:23;;;;;;;3.63;1.00;;;;;;;;;;5008802;28;20418;-57
2021/07/27 02:01:49;;;;;;;1.27;1.10;;;;;;;;;;5010699;28;20037;-57
2021/07/27 02:04:16;;;;;;;5.65;1.10;;;;;;;;;;5010544;28;20041;-57
2021/07/27 02:06:43;;;;;;;4.32;1.38;;;;;;;;;;5009661;28;20100;-57
2021/07/27 02:09:10;;;;;;;1.33;1.23;;;;;;;;;;5009890;28;20117;-57
2021/07/27 02:11:42;;;;;;;4.43;1.23;;;;;;;;;;5015475;28;20033;-57
2021/07/27 02:14:12;;;;;;;4.68;1.65;;;;;;;;;;5010113;28;20050;-58
2021/07/27 02:16:39;;;;;;;1.20;1.17;;;;;;;;;;5010210;28;20065;-57
2021/07/27 02:19:06;;;;;;;0.98;0.98;;;;;;;;;;5005852;28;20125;-57
2021/07/27 02:21:32;;;;;;;3.05;1.10;;;;;;;;;;5008593;28;20058;-57
2021/07/27 02:24:01;;;;;;;1.95;1.75;;;;;;;;;;5011044;28;20517;-57
2021/07/27 02:26:28;;;;;;;1.95;1.30;;;;;;;;;;5002035;28;20096;-58
2021/07/27 02:28:55;;;;;;;7.25;1.30;;;;;;;;;;5011053;28;20100;-58
2021/07/27 02:31:32;;;;;;;4.53;1.40;;;;;;;;;;5006768;28;20078;-58
2021/07/27 02:33:59;;;;;;;2.17;1.48;;;;;;;;;;5008266;28;20125;-58
2021/07/27 02:36:25;;;;;;;1.58;1.48;;;;;;;;;;5021118;28;20065;-58
2021/07/27 02:38:52;;;;;;;2.50;1.38;;;;;;;;;;5013611;28;20045;-58
2021/07/27 02:41:25;;;;;;;1.42;1.30;;;;;;;;;;5009870;28;20486;-59
2021/07/27 02:43:52;;;;;;;3.72;1.00;;;;;;;;;;5009890;28;20116;-58
2021/07/27 02:46:19;;;;;;;3.72;1.60;;;;;;;;;;5007370;28;20033;-59
2021/07/27 02:48:46;;;;;;;1.88;1.67;;;;;;;;;;4997055;28;20054;-61
2021/07/27 02:51:13;;;;;;;1.67;1.50;;;;;;;;;;5004202;28;20050;-62
2021/07/27 02:53:40;;;;;;;1.73;1.33;;;;;;;;;;5006252;28;20038;-61
2021/07/27 02:56:07;;;;;;;4.93;1.80;;;;;;;;;;5010704;28;20092;-62
2021/07/27 02:58:34;;;;;;;2.67;1.73;;;;;;;;;;5008586;28;20133;-64
2021/07/27 03:01:04;;;;;;;3.00;1.42;;;;;;;;;;5009926;28;20121;-63
2021/07/27 03:03:31;;;;;;;2.58;1.23;;;;;;;;;;5008917;28;20038;-63
2021/07/27 03:06:02;;;;;;;2.85;1.48;;;;;;;;;;5008147;28;20053;-64
2021/07/27 03:11:14;;;;;;;9.35;1.27;;;;;;;;;;5008804;28;20100;-61
2021/07/27 03:13:41;;;;;;;4.40;1.40;;;;;;;;;;5009214;28;20061;-61
2021/07/27 03:16:13;;;;;;;2.42;1.23;;;;;;;;;;5009782;28;20036;-60
2021/07/27 03:18:40;;;;;;;3.30;1.30;;;;;;;;;;5008381;28;20042;-60
2021/07/27 03:21:07;;;;;;;2.20;1.20;;;;;;;;;;5009722;28;20073;-61
2021/07/27 03:23:34;;;;;;;7.40;1.50;;;;;;;;;;5008954;28;20057;-60
2021/07/27 03:26:01;;;;;;;3.13;1.92;;;;;;;;;;5008121;28;20505;-60
2021/07/27 03:28:28;;;;;;;1.92;1.50;;;;;;;;;;5002077;28;20585;-60
2021/07/27 03:30:54;;;;;;;1.50;1.40;;;;;;;;;;5001567;28;20060;-60
2021/07/27 03:33:21;;;;;;;2.20;1.30;;;;;;;;;;5008977;28;20046;-60
2021/07/27 03:35:48;;;;;;;1.85;1.65;;;;;;;;;;5007135;28;20426;-60
2021/07/27 03:38:14;;;;;;;4.00;1.60;;;;;;;;;;5007670;28;20042;-60
2021/07/27 03:40:41;;;;;;;3.10;1.45;;;;;;;;;;5010185;28;20129;-59
2021/07/27 03:43:08;;;;;;;4.60;1.50;;;;;;;;;;5008871;28;20077;-59
2021/07/27 03:45:35;;;;;;;4.00;1.83;;;;;;;;;;4997283;28;20077;-60
2021/07/27 03:48:01;;;;;;;2.95;1.50;;;;;;;;;;5006336;28;20512;-60
2021/07/27 03:50:28;;;;;;;2.72;1.35;;;;;;;;;;5006521;28;20084;-59
2021/07/27 03:52:55;;;;;;;4.10;2.08;;;;;;;;;;5010081;28;20046;-59
2021/07/27 03:55:21;;;;;;;3.58;1.80;;;;;;;;;;5020389;28;20144;-60
2021/07/27 03:57:54;;;;;;;1.73;1.63;;;;;;;;;;5009434;28;20066;-60
2021/07/27 04:00:23;;;;;;;4.18;1.58;;;;;;;;;;5005799;28;20039;-60
2021/07/27 04:02:50;;;;;;;6.00;1.88;;;;;;;;;;5007620;28;20038;-60
2021/07/27 04:05:17;;;;;;;3.63;1.35;;;;;;;;;;5009400;28;20450;-60
2021/07/27 04:07:44;;;;;;;2.78;1.38;;;;;;;;;;5006770;28;20054;-59
2021/07/27 04:10:11;;;;;;;1.10;1.10;;;;;;;;;;5008216;28;20092;-60
2021/07/27 04:12:38;;;;;;;2.83;1.40;;;;;;;;;;5018197;28;20482;-59
2021/07/27 04:15:08;;;;;;;4.70;2.35;;;;;;;;;;5012846;28;20104;-59
2021/07/27 04:17:35;;;;;;;1.90;1.80;;;;;;;;;;5011265;28;20654;-60
2021/07/27 04:20:01;;;;;;;1.60;1.27;;;;;;;;;;5009628;28;20077;-59
2021/07/27 04:22:28;;;;;;;4.82;2.63;;;;;;;;;;4994276;28;20038;-60
2021/07/27 04:24:56;;;;;;;5.85;1.90;;;;;;;;;;5018373;28;20038;-60
2021/07/27 04:27:24;;;;;;;3.25;1.70;;;;;;;;;;5015339;28;20046;-59
2021/07/27 04:29:52;;;;;;;6.28;2.85;;;;;;;;;;4996209;28;20038;-59
2021/07/27 04:32:19;;;;;;;7.82;2.00;;;;;;;;;;5007933;28;20046;-59
2021/07/27 04:34:45;;;;;;;3.00;1.42;;;;;;;;;;5008406;28;20061;-59
2021/07/27 04:37:12;;;;;;;1.75;1.63;;;;;;;;;;5011939;28;20125;-59
2021/07/27 04:39:40;;;;;;;3.22;1.42;;;;;;;;;;5010004;28;20041;-60
2021/07/27 04:42:07;;;;;;;3.80;1.58;;;;;;;;;;5011308;28;20042;-59
2021/07/27 04:44:37;;;;;;;3.15;1.90;;;;;;;;;;5009830;28;20042;-59
2021/07/27 04:47:07;;;;;;;3.15;1.48;;;;;;;;;;5007019;28;20120;-59
2021/07/27 04:49:34;;;;;;;1.92;1.77;;;;;;;;;;5000542;28;20046;-59
2021/07/27 04:52:00;;;;;;;4.03;1.55;;;;;;;;;;5011976;28;20037;-59
2021/07/27 04:54:41;;;;;;;2.08;1.45;;;;;;;;;;5009595;28;20042;-59
2021/07/27 04:57:09;;;;;;;3.35;2.47;;;;;;;;;;5009519;28;20048;-59
2021/07/27 04:59:36;;;;;;;6.93;2.78;;;;;;;;;;5005828;28;20065;-59
2021/07/27 05:02:07;;;;;;;2.47;1.80;;;;;;;;;;4997302;28;20418;-60
2021/07/27 05:04:34;;;;;;;4.40;1.50;;;;;;;;;;5009103;28;20046;-60
2021/07/27 05:07:02;;;;;;;2.45;1.92;;;;;;;;;;5014993;28;20080;-60
2021/07/27 05:09:29;;;;;;;3.22;1.67;;;;;;;;;;5012415;28;20042;-59
2021/07/27 05:11:57;;;;;;;1.50;1.40;;;;;;;;;;5007739;28;20081;-46
2021/07/27 05:14:24;;;;;;;4.80;2.13;;;;;;;;;;5015582;28;20037;-56
2021/07/27 05:16:51;;;;;;;2.45;1.40;;;;;;;;;;5007416;28;20121;-43
2021/07/27 05:19:18;;;;;;;1.77;1.58;;;;;;;;;;5007498;28;20474;-45
2021/07/27 05:21:45;;;;;;;3.92;2.88;;;;;;;;;;5008659;28;20556;-45
2021/07/27 05:24:12;;;;;;;2.20;1.73;;;;;;;;;;5008750;28;20107;-45
2021/07/27 05:26:39;;;;;;;3.15;2.03;;;;;;;;;;4996827;28;20050;-48
2021/07/27 05:29:05;;;;;;;5.55;2.40;;;;;;;;;;5010884;28;20482;-46
2021/07/27 05:31:32;;;;;;;1.73;1.60;;;;;;;;;;5008445;28;20435;-48
2021/07/27 05:33:59;;;;;;;3.53;1.90;;;;;;;;;;5011260;28;20050;-51
2021/07/27 05:36:25;;;;;;;4.00;2.13;;;;;;;;;;5009685;28;20061;-48
2021/07/27 05:38:52;;;;;;;2.05;1.95;;;;;;;;;;4992221;28;20458;-51
2021/07/27 05:41:19;;;;;;;2.75;2.03;;;;;;;;;;5004784;28;20034;-48
2021/07/27 05:43:46;;;;;;;7.28;2.10;;;;;;;;;;4998542;28;20042;-51
2021/07/27 05:46:12;;;;;;;2.60;1.52;;;;;;;;;;5002986;28;20125;-47
2021/07/27 05:48:41;;;;;;;4.95;1.92;;;;;;;;;;5005267;28;20045;-47
2021/07/27 05:51:10;;;;;;;2.67;1.55;;;;;;;;;;5009631;28;20065;-47
2021/07/27 05:53:37;;;;;;;2.13;1.83;;;;;;;;;;5008987;28;20151;-48
2021/07/27 05:56:04;;;;;;;2.97;1.95;;;;;;;;;;5010082;28;20068;-49
2021/07/27 05:58:30;;;;;;;2.22;2.10;;;;;;;;;;5010820;28;20541;-47
2021/07/27 06:00:57;;;;;;;1.67;1.58;;;;;;;;;;5009901;28;20456;-47
2021/07/27 06:03:24;;;;;;;3.78;1.52;;;;;;;;;;4993889;28;20046;-48
2021/07/27 06:05:51;;;;;;;2.22;1.88;;;;;;;;;;5009543;28;20117;-50
2021/07/27 06:08:18;;;;;;;4.95;1.90;;;;;;;;;;5007793;28;20042;-47
2021/07/27 06:10:45;;;;;;;6.05;1.85;;;;;;;;;;4995258;28;20038;-51
2021/07/27 06:13:11;;;;;;;6.13;2.10;;;;;;;;;;5007809;28;20042;-51
2021/07/27 06:15:38;;;;;;;4.47;1.65;;;;;;;;;;5001120;28;20034;-50
2021/07/27 06:18:05;;;;;;;1.75;1.60;;;;;;;;;;5008957;28;20049;-50
2021/07/27 06:20:32;;;;;;;2.65;2.05;;;;;;;;;;5006193;28;20073;-51
2021/07/27 06:22:58;;;;;;;2.70;1.45;;;;;;;;;;4993199;28;20455;-47
2021/07/27 06:25:25;;;;;;;1.45;1.27;;;;;;;;;;5006602;28;20085;-51
2021/07/27 06:27:52;;;;;;;4.05;2.08;;;;;;;;;;5007688;28;20364;-48
2021/07/27 06:30:19;;;;;;;7.63;1.75;;;;;;;;;;5002959;28;20138;-50
2021/07/27 06:32:45;;;;;;;5.93;1.95;;;;;;;;;;5008217;28;20192;-49
2021/07/27 06:35:14;;;;;;;5.00;2.00;;;;;;;;;;4991464;28;20034;-50
2021/07/27 06:37:41;;;;;;;4.07;1.65;;;;;;;;;;5003956;28;20130;-50
2021/07/27 06:40:07;;;;;;;6.18;1.85;;;;;;;;;;4996249;28;20050;-46
2021/07/27 06:42:34;;;;;;;5.10;1.58;;;;;;;;;;5009975;28;20117;-49
2021/07/27 06:45:01;;;;;;;2.15;1.88;;;;;;;;;;5007666;28;20079;-49
2021/07/27 06:47:28;;;;;;;3.70;1.30;;;;;;;;;;4998455;28;20050;-50
2021/07/27 06:49:55;;;;;;;2.95;1.50;;;;;;;;;;5010050;28;20729;-48
2021/07/27 06:52:22;;;;;;;1.92;1.30;;;;;;;;;;5007392;28;20493;-48
2021/07/27 06:54:48;;;;;;;6.65;1.48;;;;;;;;;;5011063;28;20463;-45
2021/07/27 06:57:16;;;;;;;3.30;1.52;;;;;;;;;;5007980;28;20049;-50
2021/07/27 06:59:43;;;;;;;4.65;1.65;;;;;;;;;;5008389;28;20040;-47
2021/07/27 07:02:10;;;;;;;2.65;1.63;;;;;;;;;;5004114;28;20042;-47
2021/07/27 07:04:37;;;;;;;1.55;1.17;;;;;;;;;;5009158;28;20696;-51
2021/07/27 07:07:07;;;;;;;2.72;1.55;;;;;;;;;;5008596;28;20060;-48
2021/07/27 07:09:34;;;;;;;2.47;1.40;;;;;;;;;;5007091;28;20045;-48
2021/07/27 07:12:01;;;;;;;1.98;1.45;;;;;;;;;;5008231;28;20042;-50
2021/07/27 07:14:30;;;;;;;1.80;1.25;;;;;;;;;;5000705;28;20034;-48
2021/07/27 07:16:57;;;;;;;4.95;1.45;;;;;;;;;;5008769;28;20042;-48
2021/07/27 07:19:23;;;;;;;3.15;1.45;;;;;;;;;;5003588;28;20030;-47
2021/07/27 07:21:50;;;;;;;4.30;1.95;;;;;;;;;;5007126;28;20088;-47
2021/07/27 07:24:17;;;;;;;2.15;1.75;;;;;;;;;;5007790;28;20639;-47
2021/07/27 07:26:46;;;;;;;3.58;1.67;;;;;;;;;;4999836;28;20050;-51
2021/07/27 07:29:12;;;;;;;2.78;2.58;;;;;;;;;;5000532;28;20757;-46
2021/07/27 07:31:39;;;;;;;2.35;1.33;;;;;;;;;;5008542;28;20085;-48
2021/07/27 07:34:06;;;;;;;2.63;1.42;;;;;;;;;;5002939;28;20108;-48
2021/07/27 07:36:33;;;;;;;3.55;1.48;;;;;;;;;;4994662;28;20050;-48
2021/07/27 07:39:00;;;;;;;3.25;1.63;;;;;;;;;;5024275;28;20052;-50
2021/07/27 07:41:29;;;;;;;3.60;2.58;;;;;;;;;;5008500;28;20038;-49
2021/07/27 07:43:55;;;;;;;3.15;2.10;;;;;;;;;;5008720;28;20479;-49
2021/07/27 07:46:22;;;;;;;8.18;2.35;;;;;;;;;;5006832;28;20471;-50
2021/07/27 07:48:49;;;;;;;5.30;1.95;;;;;;;;;;5009563;28;20045;-48
2021/07/27 07:51:16;;;;;;;11.77;2.42;;;;;;;;;;5012943;28;20045;-51
2021/07/27 07:53:42;;;;;;;3.80;1.73;;;;;;;;;;5011440;28;20116;-48
2021/07/27 07:56:09;;;;;;;2.00;1.80;;;;;;;;;;5011847;28;20530;-49
2021/07/27 07:58:36;;;;;;;2.92;1.33;;;;;;;;;;5013520;28;20045;-48
2021/07/27 08:01:07;;;;;;;5.28;1.70;;;;;;;;;;5005618;28;20069;-48
2021/07/27 08:03:34;;;;;;;2.70;1.42;;;;;;;;;;5004661;28;20133;-50
2021/07/27 08:06:01;;;;;;;2.20;1.70;;;;;;;;;;5007681;28;20046;-50
2021/07/27 08:08:27;;;;;;;8.95;1.58;;;;;;;;;;4996640;28;20058;-47
2021/07/27 08:10:54;;;;;;;2.72;1.90;;;;;;;;;;5002867;28;20046;-49
2021/07/27 08:13:21;;;;;;;1.85;1.45;;;;;;;;;;5001558;28;20038;-47
2021/07/27 08:15:49;;;;;;;4.70;1.50;;;;;;;;;;5002148;28;20042;-50
2021/07/27 08:18:19;;;;;;;1.35;1.20;;;;;;;;;;5011887;28;20038;-49
2021/07/27 08:20:46;;;;;;;3.72;0.95;;;;;;;;;;5010068;28;20080;-47
2021/07/27 08:23:12;;;;;;;3.65;1.08;;;;;;;;;;5002480;28;20104;-48
2021/07/27 08:25:39;;;;;;;1.10;1.10;;;;;;;;;;5004175;28;20089;-49
2021/07/27 08:28:06;;;;;;;1.75;0.95;;;;;;;;;;5011169;28;20159;-51
2021/07/27 08:30:33;;;;;;;1.90;0.80;;;;;;;;;;5010270;28;20108;-50
2021/07/27 08:32:59;;;;;;;3.00;0.90;;;;;;;;;;5003227;28;20050;-49
2021/07/27 08:35:27;;;;;;;4.22;0.88;;;;;;;;;;5013064;28;20034;-51
2021/07/27 08:37:53;;;;;;;0.80;0.80;;;;;;;;;;5010597;28;20099;-49
2021/07/27 08:40:22;;;;;;;4.88;1.42;;;;;;;;;;5011177;28;20037;-47
2021/07/27 08:42:49;;;;;;;0.80;0.80;;;;;;;;;;5010610;28;20115;-50
2021/07/27 08:45:16;;;;;;;2.35;0.80;;;;;;;;;;5007736;28;20433;-52
2021/07/27 08:47:45;;;;;;;1.98;0.80;;;;;;;;;;5008568;28;20045;-51
2021/07/27 08:50:11;;;;;;;1.67;0.80;;;;;;;;;;5005515;28;20041;-48
2021/07/27 08:52:38;;;;;;;2.10;0.80;;;;;;;;;;5010029;28;20038;-50
2021/07/27 08:55:06;;;;;;;1.85;0.75;;;;;;;;;;5012283;28;20037;-49
2021/07/27 08:57:33;;;;;;;5.25;0.80;;;;;;;;;;5008408;28;20104;-48
2021/07/27 08:59:59;;;;;;;1.70;0.93;;;;;;;;;;5010957;28;20077;-49
2021/07/27 09:02:30;;;;;;;0.80;0.75;;;;;;;;;;5009895;28;20049;-52
2021/07/27 09:05:17;;;;;;;1.55;1.00;;;;;;;;;;5000425;28;20125;-50
2021/07/27 09:07:44;;;;;;;2.13;0.95;;;;;;;;;;5011716;28;20046;-49
2021/07/27 09:10:14;;;;;;;1.20;0.90;;;;;;;;;;5008290;28;20129;-49
2021/07/27 09:13:00;;;;;;;2.65;0.80;;;;;;;;;;5011057;28;20141;-48
2021/07/27 09:15:28;;;;;;;3.95;0.90;;;;;;;;;;5002501;28;20828;-49
2021/07/27 09:17:57;;;;;;;2.85;0.90;;;;;;;;;;5002690;28;20069;-51
2021/07/27 09:20:34;;;;;;;3.08;0.73;;;;;;;;;;4998658;28;20122;-49
2021/07/27 09:23:04;;;;;;;2.13;1.05;;;;;;;;;;5008946;28;20103;-50
2021/07/27 09:25:32;;;;;;;2.92;0.70;;;;;;;;;;5008827;28;20132;-50
2021/07/27 09:27:59;;;;;;;2.67;0.70;;;;;;;;;;5011506;28;20085;-51
2021/07/27 09:30:26;;;;;;;5.65;0.70;;;;;;;;;;5009068;28;20103;-52
2021/07/27 09:32:52;;;;;;;1.60;1.15;;;;;;;;;;4998703;28;20593;-52
2021/07/27 09:35:22;;;;;;;0.70;0.70;;;;;;;;;;5005347;28;20044;-53
2021/07/27 09:38:00;;;;;;;2.13;0.70;;;;;;;;;;4998464;28;20069;-50
2021/07/27 09:40:26;;;;;;;1.05;0.70;;;;;;;;;;5010076;28;20034;-52
2021/07/27 09:42:53;;;;;;;5.13;0.80;;;;;;;;;;5007156;28;20050;-50
2021/07/27 09:45:20;;;;;;;0.88;0.68;;;;;;;;;;4995222;28;20092;-50
2021/07/27 09:47:48;;;;;;;1.35;1.25;;;;;;;;;;5001663;28;20490;-51
2021/07/27 09:50:15;;;;;;;2.25;0.70;;;;;;;;;;5002058;28;20038;-53
2021/07/27 09:52:43;;;;;;;1.35;0.70;;;;;;;;;;4997047;28;20074;-49
2021/07/27 09:55:13;;;;;;;1.73;1.20;;;;;;;;;;5005529;28;20138;-50
2021/07/27 09:57:40;;;;;;;1.33;0.73;;;;;;;;;;4995668;28;20557;-49
2021/07/27 10:00:07;;;;;;;0.82;0.70;;;;;;;;;;5010385;28;20077;-49
2021/07/27 10:02:39;;;;;;;3.03;0.80;;;;;;;;;;5009806;28;20048;-51
2021/07/27 10:05:08;;;;;;;3.40;0.70;;;;;;;;;;4999818;28;20050;-50
2021/07/27 10:07:50;;;;;;;4.35;1.13;;;;;;;;;;5007646;28;20038;-52
2021/07/27 10:10:17;;;;;;;1.30;0.70;;;;;;;;;;5009689;28;20041;-51
2021/07/27 10:12:43;;;;;;;2.38;1.13;;;;;;;;;;5010431;28;20078;-53
2021/07/27 10:15:15;;;;;;;1.13;0.70;;;;;;;;;;5008533;28;20132;-49
2021/07/27 10:17:52;;;;;;;5.30;0.80;;;;;;;;;;5007273;28;20146;-50
2021/07/27 10:20:25;;;;;;;1.60;0.70;;;;;;;;;;5003857;28;20100;-51
2021/07/27 10:22:52;;;;;;;2.40;0.80;;;;;;;;;;5006630;28;20033;-51
2021/07/27 10:25:20;;;;;;;7.78;0.70;;;;;;;;;;5010120;28;20049;-49
2021/07/27 10:27:52;;;;;;;1.55;0.70;;;;;;;;;;5004902;28;20042;-52
2021/07/27 10:30:34;;;;;;;6.35;1.73;;;;;;;;;;5006710;28;20392;-49
2021/07/27 10:33:02;;;;;;;1.20;0.73;;;;;;;;;;5017193;28;20121;-50
2021/07/27 10:35:30;;;;;;;1.60;0.73;;;;;;;;;;5006095;28;20132;-52
2021/07/27 10:38:10;;;;;;;4.00;0.65;;;;;;;;;;5006322;28;20518;-49
2021/07/27 10:40:38;;;;;;;1.70;0.70;;;;;;;;;;5009788;28;20134;-53
2021/07/27 10:43:07;;;;;;;1.10;0.60;;;;;;;;;;5007715;28;20092;-52
2021/07/27 10:45:34;;;;;;;5.43;0.70;;;;;;;;;;5010146;28;20045;-52
2021/07/27 10:48:01;;;;;;;0.90;0.80;;;;;;;;;;5009921;28;20069;-51
2021/07/27 10:50:29;;;;;;;1.38;0.60;;;;;;;;;;5007874;28;20474;-50
2021/07/27 10:53:17;;;;;;;0.68;0.55;;;;;;;;;;5005448;28;20386;-53
2021/07/27 10:55:49;;;;;;;5.57;0.70;;;;;;;;;;5006716;28;20161;-51
2021/07/27 10:58:16;;;;;;;;;;;;;;;;;;5009112;28;20034;-49
2021/07/27 11:00:43;;;;;;;4.05;0.70;;;;;;;;;;5003881;28;20032;-51
2021/07/27 11:03:10;;;;;;;5.20;1.02;;;;;;;;;;5004582;28;20054;-52
2021/07/27 11:05:37;;;;;;;0.95;0.60;;;;;;;;;;5009522;28;20065;-52
2021/07/27 11:08:04;;;;;;;3.22;0.68;;;;;;;;;;5005349;28;20426;-51
2021/07/27 11:10:31;;;;;;;5.78;0.80;;;;;;;;;;5005240;28;20113;-50
2021/07/27 11:12:58;;;;;;;3.63;0.65;;;;;;;;;;5003222;28;20058;-53
2021/07/27 11:15:29;;;;;;;2.53;0.80;;;;;;;;;;4997768;28;20053;-53
2021/07/27 11:17:59;;;;;;;3.13;0.73;;;;;;;;;;4996439;28;20050;-53
2021/07/27 11:20:30;;;;;;;3.55;0.60;;;;;;;;;;5004666;28;20092;-50
2021/07/27 11:22:58;;;;;;;2.17;0.73;;;;;;;;;;5007896;28;20042;-52
2021/07/27 11:25:26;;;;;;;1.77;0.73;;;;;;;;;;5013578;28;20578;-50
2021/07/27 11:27:53;;;;;;;2.13;0.80;;;;;;;;;;5011332;28;20045;-52
2021/07/27 11:30:21;;;;;;;2.45;0.70;;;;;;;;;;5013727;28;20046;-50
2021/07/27 11:32:49;;;;;;;8.15;0.70;;;;;;;;;;5011472;28;20121;-52
2021/07/27 11:35:23;;;;;;;2.47;0.88;;;;;;;;;;5009686;28;20038;-52
2021/07/27 11:38:08;;;;;;;4.97;1.13;;;;;;;;;;5012114;28;20077;-52
2021/07/27 11:40:35;;;;;;;4.93;0.70;;;;;;;;;;5012324;28;20126;-52
2021/07/27 11:43:06;;;;;;;1.63;0.60;;;;;;;;;;4994473;28;20038;-51
2021/07/27 11:45:37;;;;;;;2.63;1.10;;;;;;;;;;5011323;28;20092;-51
2021/07/27 11:48:04;;;;;;;2.00;0.70;;;;;;;;;;5002979;28;20474;-51
2021/07/27 11:50:34;;;;;;;1.35;0.68;;;;;;;;;;5012005;28;20066;-52
2021/07/27 11:53:02;;;;;;;3.28;0.60;;;;;;;;;;5011143;28;20125;-49
2021/07/27 11:55:36;;;;;;;5.57;0.60;;;;;;;;;;4995529;28;20030;-47
2021/07/27 11:58:03;;;;;;;2.03;0.60;;;;;;;;;;5012246;28;20042;-51
2021/07/27 12:00:33;;;;;;;2.28;1.27;;;;;;;;;;5009276;28;20532;-50
2021/07/27 12:03:00;;;;;;;2.22;0.70;;;;;;;;;;5013009;28;20037;-52
2021/07/27 12:05:26;;;;;;;3.95;0.70;;;;;;;;;;5007643;28;20045;-51
2021/07/27 12:07:53;;;;;;;0.95;0.60;;;;;;;;;;4997518;28;20045;-49
2021/07/27 12:10:19;;;;;;;5.20;0.90;;;;;;;;;;5003209;28;20043;-49
2021/07/27 12:12:46;;;;;;;1.48;0.70;;;;;;;;;;5006732;28;20066;-50
2021/07/27 12:15:13;;;;;;;0.98;0.80;;;;;;;;;;5008776;28;20081;-48
2021/07/27 12:17:40;;;;;;;5.70;0.85;;;;;;;;;;5008105;28;20057;-51
2021/07/27 12:20:13;;;;;;;7.65;0.63;;;;;;;;;;5008585;28;20056;-50
2021/07/27 12:22:39;;;;;;;;;;;;;;;;;;5012489;28;20042;-49
2021/07/27 12:25:07;;;;;;;3.70;0.70;;;;;;;;;;5010144;28;19952;-50
2021/07/27 12:27:34;;;;;;;4.88;0.75;;;;;;;;;;5011106;28;20514;-49
2021/07/27 12:30:00;;;;;;;1.75;0.82;;;;;;;;;;5012938;28;20049;-47
2021/07/27 12:32:27;;;;;;;3.10;0.80;;;;;;;;;;5009457;28;20041;-53
2021/07/27 12:35:07;;;;;;;7.80;0.93;;;;;;;;;;5013102;28;20042;-52
2021/07/27 12:37:38;;;;;;;2.92;0.70;;;;;;;;;;5011081;28;20375;-51
2021/07/27 12:40:05;;;;;;;4.53;0.60;;;;;;;;;;5011229;28;20054;-52
2021/07/27 12:42:31;;;;;;;2.15;0.80;;;;;;;;;;5013544;28;20148;-52
2021/07/27 12:44:59;;;;;;;1.65;0.73;;;;;;;;;;5014232;28;20045;-53
2021/07/27 12:47:25;;;;;;;1.30;0.70;;;;;;;;;;5003933;28;20120;-52
2021/07/27 12:49:56;;;;;;;2.97;0.63;;;;;;;;;;5006978;28;20399;-54
2021/07/27 12:52:23;;;;;;;4.50;0.60;;;;;;;;;;5018685;28;20037;-53
2021/07/27 12:54:50;;;;;;;5.85;0.60;;;;;;;;;;5010958;28;20121;-52
2021/07/27 12:57:17;;;;;;;2.53;0.80;;;;;;;;;;5009220;28;20410;-52
2021/07/27 12:59:45;;;;;;;2.33;0.70;;;;;;;;;;4995399;28;20046;-51
2021/07/27 13:02:12;;;;;;;1.27;1.00;;;;;;;;;;5005790;28;20129;-51
2021/07/27 13:04:39;;;;;;;2.33;0.75;;;;;;;;;;5007854;28;20037;-53
2021/07/27 13:07:07;;;;;;;4.50;0.82;;;;;;;;;;5011480;28;20050;-52
2021/07/27 13:09:35;;;;;;;5.47;0.70;;;;;;;;;;5008837;28;20406;-53
2021/07/27 13:12:01;;;;;;;7.10;0.60;;;;;;;;;;4993748;28;20422;-52
2021/07/27 13:14:30;;;;;;;2.50;0.60;;;;;;;;;;5004182;28;20101;-52
2021/07/27 13:16:57;;;;;;;1.23;0.60;;;;;;;;;;5001071;28;20443;-52
2021/07/27 13:19:23;;;;;;;2.97;0.50;;;;;;;;;;5004271;28;20462;-51
2021/07/27 13:21:53;;;;;;;4.60;0.68;;;;;;;;;;5009420;28;20057;-53
2021/07/27 13:24:20;;;;;;;1.50;0.50;;;;;;;;;;5010615;28;20069;-53
2021/07/27 13:26:47;;;;;;;1.20;0.50;;;;;;;;;;5003813;28;20112;-52
2021/07/27 13:29:13;;;;;;;2.47;1.15;;;;;;;;;;5007531;28;20108;-52
2021/07/27 13:31:40;;;;;;;2.15;0.50;;;;;;;;;;5003743;28;20478;-53
2021/07/27 13:34:07;;;;;;;5.03;0.60;;;;;;;;;;5006170;28;20045;-54
2021/07/27 13:36:34;;;;;;;3.15;0.88;;;;;;;;;;5008838;28;20096;-53
2021/07/27 13:39:01;;;;;;;1.80;0.50;;;;;;;;;;5010328;28;20691;-53
2021/07/27 13:41:28;;;;;;;1.77;0.70;;;;;;;;;;5007861;28;20030;-53
2021/07/27 13:43:54;;;;;;;1.88;0.63;;;;;;;;;;5010670;28;20539;-52
2021/07/27 13:46:21;;;;;;;2.42;0.50;;;;;;;;;;5000688;28;20558;-52
2021/07/27 13:48:48;;;;;;;0.80;0.60;;;;;;;;;;5004433;28;20051;-49
2021/07/27 13:51:15;;;;;;;0.47;0.47;;;;;;;;;;5007508;28;20049;-50
2021/07/27 13:53:42;;;;;;;1.38;0.50;;;;;;;;;;5008270;28;20060;-53
2021/07/27 13:56:08;;;;;;;1.55;0.60;;;;;;;;;;5005351;28;20038;-52
2021/07/27 13:58:36;;;;;;;1.58;0.80;;;;;;;;;;5006885;28;20487;-47
2021/07/27 14:01:04;;;;;;;1.40;0.50;;;;;;;;;;5007598;28;20862;-53
2021/07/27 14:03:31;;;;;;;4.97;0.50;;;;;;;;;;5003830;28;20614;-53
2021/07/27 14:05:58;;;;;;;4.70;0.50;;;;;;;;;;5007057;28;20438;-51
2021/07/27 14:08:25;;;;;;;2.78;0.60;;;;;;;;;;5009395;28;20042;-52
2021/07/27 14:10:51;;;;;;;7.22;0.60;;;;;;;;;;5005443;28;20056;-49
2021/07/27 14:13:18;;;;;;;2.40;0.60;;;;;;;;;;5012124;28;20504;-52
2021/07/27 14:15:45;;;;;;;5.50;0.73;;;;;;;;;;5006485;28;20058;-52
2021/07/27 14:18:12;;;;;;;1.60;0.60;;;;;;;;;;5006053;28;20041;-52
2021/07/27 14:20:39;;;;;;;1.48;0.40;;;;;;;;;;4998306;28;20054;-52
2021/07/27 14:23:05;;;;;;;4.20;1.10;;;;;;;;;;4999025;28;20038;-52
2021/07/27 14:25:32;;;;;;;3.58;0.60;;;;;;;;;;5008450;28;20057;-50
2021/07/27 14:27:59;;;;;;;3.90;0.52;;;;;;;;;;5001892;28;20046;-51
2021/07/27 14:30:26;;;;;;;0.43;0.43;;;;;;;;;;5002763;28;20482;-50
2021/07/27 14:32:52;;;;;;;1.83;0.50;;;;;;;;;;5005707;28;20033;-50
2021/07/27 14:35:19;;;;;;;2.97;0.88;;;;;;;;;;5008137;28;20656;-51
2021/07/27 14:37:47;;;;;;;3.53;0.43;;;;;;;;;;5009209;28;20061;-50
2021/07/27 14:40:15;;;;;;;2.75;0.47;;;;;;;;;;5008531;28;20048;-49
2021/07/27 14:42:42;;;;;;;3.33;0.50;;;;;;;;;;5005665;28;20034;-48
2021/07/27 14:45:09;;;;;;;4.93;1.00;;;;;;;;;;5012916;28;20100;-49
2021/07/27 14:47:37;;;;;;;2.80;0.50;;;;;;;;;;5007983;28;20038;-52
2021/07/27 14:50:07;;;;;;;1.35;0.50;;;;;;;;;;5007982;28;20080;-50
2021/07/27 14:52:34;;;;;;;2.28;0.50;;;;;;;;;;5008544;28;20108;-51
2021/07/27 14:55:00;;;;;;;1.77;0.50;;;;;;;;;;5006433;28;20420;-51
2021/07/27 14:57:27;;;;;;;0.70;0.60;;;;;;;;;;5007954;28;20046;-49
2021/07/27 14:59:54;;;;;;;4.13;0.50;;;;;;;;;;5004655;28;20046;-50
2021/07/27 15:02:21;;;;;;;4.03;0.40;;;;;;;;;;4998053;28;20113;-51
2021/07/27 15:04:48;;;;;;;8.27;0.60;;;;;;;;;;5006698;28;20100;-49
2021/07/27 15:07:15;;;;;;;3.58;0.60;;;;;;;;;;5005528;28;20042;-51
2021/07/27 15:09:43;;;;;;;6.60;0.50;;;;;;;;;;4995356;28;20573;-52
2021/07/27 15:12:10;;;;;;;2.42;0.50;;;;;;;;;;5004410;28;20038;-49
2021/07/27 15:14:37;;;;;;;2.42;0.40;;;;;;;;;;5005610;28;20038;-52